Time;durP1;ratioP1;P1;durP2;ratioP2;P2;SDS_P1;SDS_P2;PMS_P1;PMS_P2;Temp;Humidity;BMP_temperature;BMP_pressure;BME280_temperature;BME280_humidity;BME280_pressure;Samples;Min_cycle;Max_cycle;Signal;HPM_P1;HPM_P2
2022/03/31 00:01:11;;;;;;;37.90;16.88;;;;;;;;;;5093498;28;20028;-46
2022/03/31 00:03:37;;;;;;;34.85;13.88;;;;;;;;;;5093231;28;20036;-43
2022/03/31 00:06:03;;;;;;;35.33;15.57;;;;;;;;;;5093450;28;20051;-43
2022/03/31 00:08:29;;;;;;;31.25;13.15;;;;;;;;;;5093314;28;20024;-43
2022/03/31 00:10:55;;;;;;;38.38;13.48;;;;;;;;;;5093204;28;20024;-42
2022/03/31 00:13:25;;;;;;;52.42;24.92;;;;;;;;;;5093267;28;20028;-43
2022/03/31 00:15:57;;;;;;;36.13;14.95;;;;;;;;;;5074679;28;20447;-60
2022/03/31 00:18:24;;;;;;;35.95;17.77;;;;;;;;;;5093064;28;20076;-42
2022/03/31 00:20:50;;;;;;;33.80;11.73;;;;;;;;;;5093208;28;20074;-40
2022/03/31 00:23:16;;;;;;;24.33;9.63;;;;;;;;;;5093115;28;20047;-40
2022/03/31 00:25:45;;;;;;;43.00;18.23;;;;;;;;;;5093131;28;20021;-42
2022/03/31 00:28:11;;;;;;;32.50;14.18;;;;;;;;;;5093050;28;20466;-42
2022/03/31 00:30:39;;;;;;;35.42;14.93;;;;;;;;;;5093011;28;20107;-43
2022/03/31 00:33:05;;;;;;;28.33;11.82;;;;;;;;;;5093027;28;20027;-43
2022/03/31 00:35:31;;;;;;;29.95;15.23;;;;;;;;;;5093109;28;20107;-43
2022/03/31 00:37:57;;;;;;;22.83;10.55;;;;;;;;;;5093036;28;20039;-42
2022/03/31 00:40:24;;;;;;;41.13;15.13;;;;;;;;;;5093003;28;20476;-41
2022/03/31 00:42:57;;;;;;;36.03;14.68;;;;;;;;;;5093166;28;20367;-43
2022/03/31 00:45:26;;;;;;;34.20;12.52;;;;;;;;;;5090555;28;20026;-46
2022/03/31 00:47:53;;;;;;;32.95;13.60;;;;;;;;;;5074608;28;20022;-43
2022/03/31 00:50:22;;;;;;;35.10;13.25;;;;;;;;;;5085123;28;20052;-43
2022/03/31 00:52:48;;;;;;;46.60;14.80;;;;;;;;;;5092840;28;20016;-48
2022/03/31 00:55:15;;;;;;;35.95;13.10;;;;;;;;;;5092665;28;20127;-44
2022/03/31 00:57:43;;;;;;;27.38;11.02;;;;;;;;;;5092880;28;20066;-44
2022/03/31 01:00:10;;;;;;;26.08;10.90;;;;;;;;;;5092737;28;20077;-44
2022/03/31 01:02:38;;;;;;;32.65;9.48;;;;;;;;;;5094513;28;20020;-44
2022/03/31 01:05:08;;;;;;;29.48;11.50;;;;;;;;;;5096379;28;20052;-43
2022/03/31 01:07:34;;;;;;;24.55;9.48;;;;;;;;;;5096331;28;20388;-45
2022/03/31 01:10:01;;;;;;;27.65;11.93;;;;;;;;;;5096575;28;20048;-43
2022/03/31 01:12:27;;;;;;;24.70;10.43;;;;;;;;;;5096301;28;20035;-49
2022/03/31 01:15:05;;;;;;;26.35;12.82;;;;;;;;;;5096405;28;20085;-47
2022/03/31 01:17:31;;;;;;;25.98;11.07;;;;;;;;;;5077927;28;20028;-42
2022/03/31 01:20:00;;;;;;;30.58;11.90;;;;;;;;;;5096343;28;20475;-42
2022/03/31 01:22:28;;;;;;;27.50;7.88;;;;;;;;;;5096493;28;20028;-43
2022/03/31 01:24:54;;;;;;;28.25;10.85;;;;;;;;;;5096642;28;20389;-42
2022/03/31 01:27:20;;;;;;;20.85;9.27;;;;;;;;;;5096217;28;20020;-42
2022/03/31 01:29:46;;;;;;;20.20;6.65;;;;;;;;;;5096342;28;20464;-43
2022/03/31 01:32:13;;;;;;;23.48;7.90;;;;;;;;;;5095852;28;20024;-44
2022/03/31 01:34:39;;;;;;;17.73;6.75;;;;;;;;;;5096163;28;20046;-43
2022/03/31 01:37:05;;;;;;;28.33;8.18;;;;;;;;;;5095890;28;20028;-41
2022/03/31 01:39:32;;;;;;;28.70;6.90;;;;;;;;;;5095824;28;20479;-42
2022/03/31 01:42:01;;;;;;;25.08;7.70;;;;;;;;;;5095877;28;20051;-42
2022/03/31 01:44:28;;;;;;;22.80;8.48;;;;;;;;;;5096103;28;20058;-41
2022/03/31 01:46:54;;;;;;;25.63;7.65;;;;;;;;;;5095685;28;20024;-42
2022/03/31 01:49:20;;;;;;;33.38;8.48;;;;;;;;;;5095522;28;20059;-43
2022/03/31 01:51:46;;;;;;;25.70;8.27;;;;;;;;;;5095703;28;20024;-43
2022/03/31 01:54:12;;;;;;;28.52;9.40;;;;;;;;;;5095706;28;20039;-42
2022/03/31 01:56:45;;;;;;;22.95;7.07;;;;;;;;;;5095583;28;20057;-44
2022/03/31 01:59:11;;;;;;;20.65;6.75;;;;;;;;;;5095727;28;20016;-42
2022/03/31 02:01:37;;;;;;;28.50;8.60;;;;;;;;;;5095533;28;20483;-43
2022/03/31 02:04:05;;;;;;;27.45;7.75;;;;;;;;;;5095310;28;20039;-43
2022/03/31 02:06:32;;;;;;;23.02;7.22;;;;;;;;;;5095475;28;20020;-48
2022/03/31 02:08:58;;;;;;;32.13;7.50;;;;;;;;;;5095750;28;20478;-44
2022/03/31 02:11:24;;;;;;;30.20;7.32;;;;;;;;;;5095487;28;20032;-43
2022/03/31 02:13:50;;;;;;;22.52;6.63;;;;;;;;;;5095115;28;20031;-42
2022/03/31 02:16:21;;;;;;;22.15;6.78;;;;;;;;;;5095140;28;20031;-42
2022/03/31 02:18:47;;;;;;;19.85;6.35;;;;;;;;;;5095067;28;20032;-41
2022/03/31 02:21:15;;;;;;;21.00;6.57;;;;;;;;;;5095044;28;20376;-41
2022/03/31 02:23:45;;;;;;;19.13;6.85;;;;;;;;;;5095248;28;20040;-49
2022/03/31 02:26:12;;;;;;;32.80;6.75;;;;;;;;;;5094927;28;20056;-41
2022/03/31 02:28:40;;;;;;;19.05;6.47;;;;;;;;;;5094934;28;20035;-43
2022/03/31 02:31:07;;;;;;;22.70;6.60;;;;;;;;;;5094890;28;20018;-42
2022/03/31 02:33:33;;;;;;;20.55;6.95;;;;;;;;;;5094787;28;20038;-43
2022/03/31 02:35:59;;;;;;;24.42;7.15;;;;;;;;;;5094821;28;20051;-42
2022/03/31 02:38:25;;;;;;;19.00;7.22;;;;;;;;;;5094681;28;20035;-43
2022/03/31 02:40:52;;;;;;;29.50;7.03;;;;;;;;;;5094895;28;20024;-41
2022/03/31 02:43:18;;;;;;;19.33;5.57;;;;;;;;;;5094633;28;20043;-44
2022/03/31 02:45:44;;;;;;;26.23;6.38;;;;;;;;;;5094540;28;20440;-44
2022/03/31 02:48:11;;;;;;;23.00;6.50;;;;;;;;;;5094296;28;20040;-43
2022/03/31 02:50:37;;;;;;;19.88;6.45;;;;;;;;;;5094250;28;20131;-44
2022/03/31 02:55:50;;;;;;;27.40;6.68;;;;;;;;;;5094963;28;20035;-43
2022/03/31 02:58:16;;;;;;;24.58;5.40;;;;;;;;;;5076037;28;20492;-43
2022/03/31 03:00:42;;;;;;;16.75;5.82;;;;;;;;;;5094260;28;20027;-43
2022/03/31 03:03:10;;;;;;;26.77;6.05;;;;;;;;;;5094077;28;20054;-43
2022/03/31 03:05:36;;;;;;;30.02;5.93;;;;;;;;;;5094314;28;20024;-45
2022/03/31 03:08:02;;;;;;;24.02;6.80;;;;;;;;;;5094177;28;20119;-43
2022/03/31 03:10:28;;;;;;;17.85;5.88;;;;;;;;;;5094560;28;20020;-42
2022/03/31 03:12:56;;;;;;;22.42;6.47;;;;;;;;;;5094295;28;20071;-43
2022/03/31 03:15:22;;;;;;;23.17;6.40;;;;;;;;;;5093994;28;20056;-43
2022/03/31 03:17:48;;;;;;;22.75;5.90;;;;;;;;;;5093845;28;20048;-42
2022/03/31 03:20:19;;;;;;;20.58;5.60;;;;;;;;;;5093907;28;20024;-42
2022/03/31 03:22:48;;;;;;;21.20;5.43;;;;;;;;;;5093927;28;20552;-42
2022/03/31 03:25:15;;;;;;;23.48;6.80;;;;;;;;;;5093174;28;20094;-43
2022/03/31 03:27:42;;;;;;;18.67;7.15;;;;;;;;;;5093886;28;20040;-42
2022/03/31 03:30:08;;;;;;;18.70;4.90;;;;;;;;;;5075345;28;20063;-41
2022/03/31 03:32:38;;;;;;;17.02;5.55;;;;;;;;;;5093673;28;20115;-44
2022/03/31 03:35:05;;;;;;;21.23;5.13;;;;;;;;;;5093682;28;20460;-41
2022/03/31 03:37:31;;;;;;;19.15;4.90;;;;;;;;;;5094049;28;20032;-41
2022/03/31 03:39:58;;;;;;;19.27;5.68;;;;;;;;;;5093784;28;20095;-44
2022/03/31 03:42:25;;;;;;;21.02;4.97;;;;;;;;;;5093633;28;20023;-44
2022/03/31 03:44:51;;;;;;;22.02;5.38;;;;;;;;;;5093578;28;20036;-41
2022/03/31 03:47:19;;;;;;;15.40;4.45;;;;;;;;;;5093339;28;20029;-48
2022/03/31 03:49:45;;;;;;;20.08;5.82;;;;;;;;;;5093608;28;20055;-45
2022/03/31 03:52:11;;;;;;;16.40;5.53;;;;;;;;;;5093768;28;20028;-49
2022/03/31 03:54:37;;;;;;;22.58;4.75;;;;;;;;;;5093724;28;20026;-45
2022/03/31 03:57:04;;;;;;;20.63;4.93;;;;;;;;;;5093609;28;20035;-43
2022/03/31 03:59:30;;;;;;;16.15;4.65;;;;;;;;;;5093794;28;20023;-53
2022/03/31 04:01:56;;;;;;;16.38;4.30;;;;;;;;;;5093395;28;20081;-46
2022/03/31 04:04:22;;;;;;;22.58;4.82;;;;;;;;;;5093239;28;20123;-45
2022/03/31 04:06:48;;;;;;;14.20;4.43;;;;;;;;;;5093483;28;20084;-43
2022/03/31 04:09:17;;;;;;;12.80;5.07;;;;;;;;;;5093481;28;20077;-48
2022/03/31 04:11:43;;;;;;;20.77;4.78;;;;;;;;;;5093473;28;20071;-42
2022/03/31 04:14:09;;;;;;;14.88;4.60;;;;;;;;;;5093545;28;20051;-61
2022/03/31 04:16:35;;;;;;;15.68;4.93;;;;;;;;;;5098454;28;20031;-45
2022/03/31 04:19:01;;;;;;;19.20;4.68;;;;;;;;;;5105142;28;20088;-50
2022/03/31 04:21:27;;;;;;;14.35;4.88;;;;;;;;;;5104740;28;20383;-44
2022/03/31 04:23:53;;;;;;;15.77;5.25;;;;;;;;;;5109326;28;20032;-50
2022/03/31 04:26:20;;;;;;;18.85;4.38;;;;;;;;;;5105547;28;20015;-42
2022/03/31 04:28:46;;;;;;;15.02;4.88;;;;;;;;;;5106148;28;20104;-41
2022/03/31 04:31:16;;;;;;;13.40;4.72;;;;;;;;;;5106976;28;20027;-56
2022/03/31 04:33:42;;;;;;;11.48;4.70;;;;;;;;;;5087647;28;20032;-44
2022/03/31 04:36:08;;;;;;;12.35;3.90;;;;;;;;;;5105401;28;20008;-46
2022/03/31 04:38:34;;;;;;;14.63;4.75;;;;;;;;;;5103216;28;20443;-44
2022/03/31 04:41:05;;;;;;;16.27;7.15;;;;;;;;;;5110848;28;20099;-44
2022/03/31 04:43:31;;;;;;;21.50;6.75;;;;;;;;;;5110167;28;20035;-44
2022/03/31 04:46:00;;;;;;;26.45;10.77;;;;;;;;;;5108765;28;20020;-42
2022/03/31 04:48:26;;;;;;;10.85;4.97;;;;;;;;;;5108593;28;20015;-45
2022/03/31 04:50:53;;;;;;;17.83;6.30;;;;;;;;;;5110834;28;20048;-49
2022/03/31 04:53:19;;;;;;;15.68;7.38;;;;;;;;;;5111339;28;20024;-51
2022/03/31 04:55:47;;;;;;;16.50;4.80;;;;;;;;;;5108911;28;20020;-49
2022/03/31 04:58:13;;;;;;;18.02;5.60;;;;;;;;;;5109969;28;20027;-43
2022/03/31 05:00:39;;;;;;;23.98;6.63;;;;;;;;;;5108927;28;20008;-43
2022/03/31 05:03:05;;;;;;;28.17;13.52;;;;;;;;;;5110445;28;20069;-47
2022/03/31 05:05:31;;;;;;;51.42;21.63;;;;;;;;;;5107219;28;20019;-42
2022/03/31 05:07:58;;;;;;;19.98;6.25;;;;;;;;;;5109490;28;20513;-45
2022/03/31 05:10:24;;;;;;;22.10;6.90;;;;;;;;;;5108923;28;20076;-43
2022/03/31 05:12:50;;;;;;;21.27;7.13;;;;;;;;;;5111205;28;20090;-45
2022/03/31 05:15:16;;;;;;;30.50;10.90;;;;;;;;;;5113777;28;20036;-45
2022/03/31 05:17:42;;;;;;;16.90;6.43;;;;;;;;;;5116436;28;20038;-47
2022/03/31 05:20:09;;;;;;;17.52;6.50;;;;;;;;;;5116857;28;20024;-48
2022/03/31 05:22:42;;;;;;;13.63;5.37;;;;;;;;;;5098229;28;20023;-45
2022/03/31 05:25:09;;;;;;;15.18;5.28;;;;;;;;;;5116595;28;20032;-46
2022/03/31 05:27:40;;;;;;;14.40;5.20;;;;;;;;;;5116503;28;20030;-48
2022/03/31 05:30:06;;;;;;;16.17;5.32;;;;;;;;;;5116430;28;20030;-45
2022/03/31 05:32:35;;;;;;;14.73;4.60;;;;;;;;;;5116207;28;20020;-44
2022/03/31 05:35:01;;;;;;;13.65;6.78;;;;;;;;;;5116497;28;20140;-45
2022/03/31 05:37:29;;;;;;;16.25;5.40;;;;;;;;;;5116534;28;20401;-44
2022/03/31 05:39:55;;;;;;;14.43;6.75;;;;;;;;;;5116376;28;20019;-46
2022/03/31 05:42:21;;;;;;;17.02;5.82;;;;;;;;;;5116399;28;20059;-43
2022/03/31 05:44:47;;;;;;;14.45;5.60;;;;;;;;;;5116274;28;20035;-43
2022/03/31 05:47:14;;;;;;;17.63;5.32;;;;;;;;;;5096789;28;20070;-50
2022/03/31 05:49:40;;;;;;;14.30;5.50;;;;;;;;;;5115447;28;20134;-58
2022/03/31 05:52:06;;;;;;;16.48;5.78;;;;;;;;;;5115884;28;20092;-42
2022/03/31 05:54:32;;;;;;;16.50;5.63;;;;;;;;;;5115934;28;20033;-54
2022/03/31 05:56:58;;;;;;;17.80;5.55;;;;;;;;;;5116292;28;20024;-44
2022/03/31 05:59:24;;;;;;;16.08;6.18;;;;;;;;;;5115980;28;20382;-46
2022/03/31 06:01:50;;;;;;;11.00;5.35;;;;;;;;;;5115717;28;20024;-46
2022/03/31 06:04:20;;;;;;;11.32;5.15;;;;;;;;;;5115573;28;20039;-43
2022/03/31 06:06:48;;;;;;;13.35;5.13;;;;;;;;;;5115716;28;20110;-42
2022/03/31 06:09:14;;;;;;;15.68;4.50;;;;;;;;;;5115600;28;20027;-54
2022/03/31 06:11:40;;;;;;;12.73;4.93;;;;;;;;;;5115891;28;20026;-44
2022/03/31 06:14:11;;;;;;;19.33;5.95;;;;;;;;;;5115649;28;20132;-43
2022/03/31 06:16:38;;;;;;;19.37;6.80;;;;;;;;;;5115445;28;20037;-43
2022/03/31 06:19:04;;;;;;;14.85;5.95;;;;;;;;;;5115369;28;20608;-47
2022/03/31 06:21:31;;;;;;;17.50;7.32;;;;;;;;;;5115502;28;20020;-43
2022/03/31 06:23:57;;;;;;;21.23;8.85;;;;;;;;;;5115384;28;20036;-47
2022/03/31 06:26:23;;;;;;;16.35;7.60;;;;;;;;;;5115419;28;20023;-42
2022/03/31 06:28:50;;;;;;;17.90;6.72;;;;;;;;;;5115356;28;20023;-43
2022/03/31 06:31:16;;;;;;;19.80;6.28;;;;;;;;;;5115129;28;20039;-43
2022/03/31 06:33:42;;;;;;;20.13;6.78;;;;;;;;;;5115152;28;20059;-44
2022/03/31 06:36:08;;;;;;;13.13;5.85;;;;;;;;;;5115242;28;20024;-44
2022/03/31 06:38:34;;;;;;;16.00;6.60;;;;;;;;;;5115085;28;20031;-43
2022/03/31 06:41:06;;;;;;;22.20;8.05;;;;;;;;;;5115220;28;20027;-43
2022/03/31 06:43:33;;;;;;;16.95;5.78;;;;;;;;;;5114885;28;20062;-43
2022/03/31 06:45:59;;;;;;;20.70;6.82;;;;;;;;;;5114926;28;20154;-43
2022/03/31 06:48:29;;;;;;;20.20;6.97;;;;;;;;;;5114588;28;20517;-43
2022/03/31 06:50:58;;;;;;;21.48;6.97;;;;;;;;;;5114653;28;20059;-71
2022/03/31 06:53:26;;;;;;;20.67;7.82;;;;;;;;;;5114955;28;20026;-48
2022/03/31 06:55:53;;;;;;;23.60;7.15;;;;;;;;;;5114702;28;20032;-60
2022/03/31 06:58:21;;;;;;;16.60;7.97;;;;;;;;;;5114798;28;20020;-47
2022/03/31 07:00:47;;;;;;;12.95;5.05;;;;;;;;;;5114526;28;20053;-44
2022/03/31 07:03:13;;;;;;;14.43;5.53;;;;;;;;;;5114440;28;20030;-50
2022/03/31 07:05:40;;;;;;;16.27;5.80;;;;;;;;;;5114562;28;20615;-44
2022/03/31 07:08:06;;;;;;;10.98;4.68;;;;;;;;;;5114809;28;20023;-44
2022/03/31 07:10:32;;;;;;;12.38;4.68;;;;;;;;;;5114544;28;20102;-48
2022/03/31 07:13:00;;;;;;;16.90;5.60;;;;;;;;;;5114336;28;20091;-54
2022/03/31 07:15:26;;;;;;;12.70;5.22;;;;;;;;;;5114362;28;20023;-47
2022/03/31 07:17:55;;;;;;;14.00;5.20;;;;;;;;;;5114160;28;20087;-55
2022/03/31 07:20:24;;;;;;;12.65;5.03;;;;;;;;;;5114708;28;20028;-59
2022/03/31 07:22:53;;;;;;;13.88;6.28;;;;;;;;;;5114293;28;20023;-45
2022/03/31 07:25:19;;;;;;;16.50;5.82;;;;;;;;;;5114229;28;20148;-45
2022/03/31 07:27:45;;;;;;;16.23;5.70;;;;;;;;;;5114375;28;20019;-47
2022/03/31 07:30:16;;;;;;;15.38;6.20;;;;;;;;;;5114087;28;20035;-44
2022/03/31 07:32:57;;;;;;;21.90;6.70;;;;;;;;;;5114077;28;20024;-54
2022/03/31 07:35:24;;;;;;;16.85;5.57;;;;;;;;;;5114527;28;20110;-65
2022/03/31 07:37:51;;;;;;;16.20;5.22;;;;;;;;;;5114023;28;20012;-43
2022/03/31 07:40:18;;;;;;;18.70;5.32;;;;;;;;;;5114015;28;20019;-43
2022/03/31 07:42:44;;;;;;;17.55;5.57;;;;;;;;;;5113907;28;20026;-63
2022/03/31 07:45:13;;;;;;;18.60;6.60;;;;;;;;;;5113845;28;20028;-43
2022/03/31 07:47:43;;;;;;;19.65;6.43;;;;;;;;;;5113808;28;20027;-41
2022/03/31 07:50:10;;;;;;;16.42;5.45;;;;;;;;;;5083788;28;20102;-43
2022/03/31 07:52:39;;;;;;;18.08;6.18;;;;;;;;;;5093703;28;20051;-43
2022/03/31 07:55:06;;;;;;;17.95;6.38;;;;;;;;;;5093573;28;20511;-43
2022/03/31 07:57:33;;;;;;;30.70;8.85;;;;;;;;;;5093395;28;20055;-42
2022/03/31 07:59:59;;;;;;;31.70;10.10;;;;;;;;;;5093921;28;20021;-50
2022/03/31 08:02:28;;;;;;;26.35;11.05;;;;;;;;;;5093460;28;20056;-41
2022/03/31 08:04:54;;;;;;;31.33;11.82;;;;;;;;;;5093414;28;20028;-43
2022/03/31 08:07:21;;;;;;;19.95;8.88;;;;;;;;;;5093579;28;20020;-42
2022/03/31 08:09:47;;;;;;;38.70;16.30;;;;;;;;;;5093449;28;20085;-44
2022/03/31 08:12:18;;;;;;;24.55;11.00;;;;;;;;;;5099109;28;20052;-63
2022/03/31 08:14:44;;;;;;;26.15;10.43;;;;;;;;;;5100354;28;20104;-48
2022/03/31 08:17:10;;;;;;;30.35;10.38;;;;;;;;;;5099966;28;20047;-46
2022/03/31 08:19:36;;;;;;;21.10;10.05;;;;;;;;;;5100284;28;20028;-49
2022/03/31 08:22:03;;;;;;;28.58;12.05;;;;;;;;;;5099266;28;20023;-57
2022/03/31 08:24:32;;;;;;;36.67;15.07;;;;;;;;;;5098800;28;20036;-45
2022/03/31 08:26:58;;;;;;;30.45;12.23;;;;;;;;;;5100223;28;20048;-53
2022/03/31 08:29:27;;;;;;;26.02;7.55;;;;;;;;;;5099651;28;20102;-45
2022/03/31 08:31:55;;;;;;;40.75;11.10;;;;;;;;;;5099561;28;20024;-44
2022/03/31 08:34:22;;;;;;;23.98;8.27;;;;;;;;;;5099051;28;20027;-42
2022/03/31 08:36:48;;;;;;;20.52;8.75;;;;;;;;;;5099352;28;20459;-43
2022/03/31 08:39:15;;;;;;;26.85;12.77;;;;;;;;;;5099591;28;20499;-41
2022/03/31 08:41:44;;;;;;;41.25;14.40;;;;;;;;;;5099360;28;20352;-43
2022/03/31 08:44:12;;;;;;;25.30;10.35;;;;;;;;;;5099532;28;20024;-42
2022/03/31 08:46:38;;;;;;;32.05;9.18;;;;;;;;;;5099400;28;20031;-42
2022/03/31 08:49:04;;;;;;;17.65;7.78;;;;;;;;;;5101517;28;20085;-44
2022/03/31 08:51:33;;;;;;;16.33;6.38;;;;;;;;;;5119807;28;20019;-45
2022/03/31 08:54:00;;;;;;;19.50;7.22;;;;;;;;;;5119853;28;20019;-43
2022/03/31 08:56:26;;;;;;;46.17;21.48;;;;;;;;;;5119772;28;20465;-45
2022/03/31 08:58:52;;;;;;;19.75;7.78;;;;;;;;;;5119647;28;20027;-47
2022/03/31 09:01:18;;;;;;;22.85;8.25;;;;;;;;;;5119795;28;20127;-44
2022/03/31 09:03:46;;;;;;;19.60;6.53;;;;;;;;;;5100998;28;20554;-44
2022/03/31 09:06:22;;;;;;;17.63;4.88;;;;;;;;;;5119566;28;20015;-49
2022/03/31 09:08:57;;;;;;;13.85;4.55;;;;;;;;;;5117657;28;20039;-50
2022/03/31 09:11:32;;;;;;;17.25;4.95;;;;;;;;;;5117264;28;20020;-51
2022/03/31 09:13:59;;;;;;;19.33;5.68;;;;;;;;;;5119248;28;20068;-51
2022/03/31 09:16:33;;;;;;;16.70;4.75;;;;;;;;;;5119645;28;20035;-51
2022/03/31 09:19:02;;;;;;;15.80;4.43;;;;;;;;;;5119928;28;20085;-50
2022/03/31 09:21:31;;;;;;;12.93;4.18;;;;;;;;;;5119482;28;20022;-46
2022/03/31 09:24:01;;;;;;;17.05;4.43;;;;;;;;;;5115123;28;20032;-48
2022/03/31 09:26:31;;;;;;;13.73;4.65;;;;;;;;;;5116162;28;20107;-49
2022/03/31 09:29:09;;;;;;;21.02;4.78;;;;;;;;;;5116574;28;20034;-50
2022/03/31 09:31:35;;;;;;;15.52;4.82;;;;;;;;;;5116277;28;20024;-52
2022/03/31 09:34:01;;;;;;;19.52;4.05;;;;;;;;;;5116323;28;20024;-51
2022/03/31 09:36:27;;;;;;;16.48;3.67;;;;;;;;;;5116564;28;20023;-56
2022/03/31 09:38:53;;;;;;;18.50;5.57;;;;;;;;;;5116521;28;20019;-55
2022/03/31 09:41:21;;;;;;;35.15;12.75;;;;;;;;;;5113458;28;20027;-50
2022/03/31 09:43:48;;;;;;;13.75;3.85;;;;;;;;;;5095395;28;20463;-55
2022/03/31 09:46:18;;;;;;;19.92;4.63;;;;;;;;;;5096051;28;20453;-53
2022/03/31 09:48:45;;;;;;;9.23;3.28;;;;;;;;;;5095581;28;20032;-49
2022/03/31 09:51:11;;;;;;;17.27;3.28;;;;;;;;;;5095683;28;20454;-57
2022/03/31 09:53:38;;;;;;;15.55;4.18;;;;;;;;;;5095954;28;20039;-56
2022/03/31 09:56:05;;;;;;;20.90;4.28;;;;;;;;;;5112860;28;20012;-47
2022/03/31 09:58:34;;;;;;;19.85;5.15;;;;;;;;;;5115642;28;20413;-53
2022/03/31 10:01:01;;;;;;;15.38;3.55;;;;;;;;;;5115084;28;20020;-49
2022/03/31 10:03:27;;;;;;;17.48;5.82;;;;;;;;;;5115032;28;20023;-49
2022/03/31 10:05:53;;;;;;;61.97;28.60;;;;;;;;;;5115069;28;20035;-51
2022/03/31 10:08:20;;;;;;;14.15;5.63;;;;;;;;;;5114733;28;20479;-51
2022/03/31 10:10:46;;;;;;;17.30;5.57;;;;;;;;;;5115008;28;20522;-56
2022/03/31 10:13:21;;;;;;;11.15;3.35;;;;;;;;;;5114967;28;20463;-52
2022/03/31 10:15:50;;;;;;;19.55;5.57;;;;;;;;;;5112903;28;20023;-52
2022/03/31 10:18:17;;;;;;;20.98;3.75;;;;;;;;;;5114896;28;20058;-50
2022/03/31 10:20:57;;;;;;;12.93;3.60;;;;;;;;;;5115350;28;20038;-54
2022/03/31 10:26:08;;;;;;;14.75;3.55;;;;;;;;;;5113045;28;20506;-54
2022/03/31 10:28:34;;;;;;;15.50;5.30;;;;;;;;;;5114917;28;20016;-53
2022/03/31 10:31:01;;;;;;;12.07;3.38;;;;;;;;;;5114658;28;20024;-54
2022/03/31 10:33:29;;;;;;;18.13;5.30;;;;;;;;;;5109277;28;20028;-53
2022/03/31 10:36:19;;;;;;;12.68;3.72;;;;;;;;;;5113946;28;20028;-59
2022/03/31 10:38:52;;;;;;;20.20;4.28;;;;;;;;;;5112084;28;20027;-57
2022/03/31 10:41:19;;;;;;;19.13;4.45;;;;;;;;;;5114247;28;20024;-56
2022/03/31 10:43:48;;;;;;;17.98;5.07;;;;;;;;;;5112073;28;20143;-54
2022/03/31 10:46:18;;;;;;;12.13;5.05;;;;;;;;;;5114717;28;20019;-56
2022/03/31 10:48:58;;;;;;;12.35;4.53;;;;;;;;;;5114414;28;20016;-55
2022/03/31 10:51:53;;;;;;;16.15;2.85;;;;;;;;;;5114472;28;20119;-47
2022/03/31 10:54:27;;;;;;;9.77;2.85;;;;;;;;;;5031332;28;20042;-46
2022/03/31 10:57:09;;;;;;;7.80;2.42;;;;;;;;;;5030779;28;20064;-45
2022/03/31 10:59:36;;;;;;;8.15;2.47;;;;;;;;;;5031579;28;20518;-46
2022/03/31 11:02:08;;;;;;;10.70;2.13;;;;;;;;;;5032505;28;20092;-48
2022/03/31 11:04:42;;;;;;;12.57;2.40;;;;;;;;;;5031901;28;20054;-47
2022/03/31 11:07:18;;;;;;;9.15;2.33;;;;;;;;;;5032117;28;20517;-45
2022/03/31 11:09:45;;;;;;;8.25;2.17;;;;;;;;;;5031963;28;20083;-51
2022/03/31 11:12:22;;;;;;;7.95;2.35;;;;;;;;;;5032124;28;20444;-54
2022/03/31 11:15:00;;;;;;;7.55;2.47;;;;;;;;;;5031877;28;20040;-46
2022/03/31 11:17:27;;;;;;;8.95;1.85;;;;;;;;;;5031958;28;20041;-46
2022/03/31 11:19:55;;;;;;;6.63;1.70;;;;;;;;;;5031766;28;20116;-45
2022/03/31 11:22:23;;;;;;;16.85;2.90;;;;;;;;;;5031941;28;20033;-50
2022/03/31 11:24:50;;;;;;;7.25;2.75;;;;;;;;;;5031577;28;20041;-46
2022/03/31 11:27:17;;;;;;;10.80;3.10;;;;;;;;;;5031710;28;20029;-57
2022/03/31 11:29:43;;;;;;;13.00;2.90;;;;;;;;;;5035727;28;20083;-47
2022/03/31 11:32:10;;;;;;;10.60;3.00;;;;;;;;;;5114288;28;20028;-51
2022/03/31 11:34:36;;;;;;;8.30;2.50;;;;;;;;;;5114148;28;20020;-46
2022/03/31 11:37:02;;;;;;;17.15;3.28;;;;;;;;;;5114360;28;20055;-51
2022/03/31 11:39:30;;;;;;;16.50;4.68;;;;;;;;;;5114148;28;20387;-46
2022/03/31 11:41:57;;;;;;;12.23;4.05;;;;;;;;;;5114120;28;20058;-45
2022/03/31 11:44:26;;;;;;;21.90;6.25;;;;;;;;;;5114139;28;20518;-45
2022/03/31 11:46:53;;;;;;;16.17;4.55;;;;;;;;;;5113157;28;20037;-45
2022/03/31 11:49:26;;;;;;;15.95;3.58;;;;;;;;;;5113854;28;20048;-52
2022/03/31 11:51:55;;;;;;;19.05;4.00;;;;;;;;;;5114163;28;20058;-46
2022/03/31 11:54:22;;;;;;;12.05;3.42;;;;;;;;;;5113945;28;20049;-46
2022/03/31 11:56:48;;;;;;;10.02;3.50;;;;;;;;;;5113796;28;20055;-45
2022/03/31 11:59:14;;;;;;;11.00;3.25;;;;;;;;;;5113868;28;20554;-52
2022/03/31 12:01:43;;;;;;;12.90;2.67;;;;;;;;;;5114122;28;20475;-51
2022/03/31 12:04:26;;;;;;;16.60;4.35;;;;;;;;;;5113590;28;20073;-54
2022/03/31 12:06:54;;;;;;;13.20;3.20;;;;;;;;;;5113488;28;20479;-46
2022/03/31 12:09:23;;;;;;;12.25;3.83;;;;;;;;;;5113838;28;20447;-45
2022/03/31 12:11:49;;;;;;;11.68;2.53;;;;;;;;;;5113425;28;20081;-55
2022/03/31 12:14:16;;;;;;;7.63;2.80;;;;;;;;;;5113692;28;20047;-47
2022/03/31 12:16:53;;;;;;;10.82;2.67;;;;;;;;;;5113697;28;20052;-46
2022/03/31 12:19:19;;;;;;;11.20;3.58;;;;;;;;;;5113646;28;20027;-46
2022/03/31 12:21:46;;;;;;;14.85;2.65;;;;;;;;;;5113620;28;20382;-45
2022/03/31 12:24:13;;;;;;;14.23;2.92;;;;;;;;;;5113546;28;20148;-45
2022/03/31 12:27:00;;;;;;;12.23;2.78;;;;;;;;;;5113826;28;20035;-46
2022/03/31 12:29:27;;;;;;;6.07;2.70;;;;;;;;;;5099475;28;20031;-45
2022/03/31 12:32:01;;;;;;;9.85;3.45;;;;;;;;;;5113607;28;20020;-48
2022/03/31 12:34:27;;;;;;;14.88;3.42;;;;;;;;;;5113357;28;20023;-46
2022/03/31 12:36:53;;;;;;;11.45;3.17;;;;;;;;;;5113409;28;20023;-49
2022/03/31 12:39:19;;;;;;;11.88;3.05;;;;;;;;;;5113469;28;20470;-48
2022/03/31 12:41:50;;;;;;;7.10;2.22;;;;;;;;;;5113504;28;20375;-47
2022/03/31 12:44:19;;;;;;;9.65;2.00;;;;;;;;;;5113458;28;20031;-54
2022/03/31 12:46:51;;;;;;;5.13;2.17;;;;;;;;;;5113544;28;20023;-47
2022/03/31 12:49:18;;;;;;;5.85;1.85;;;;;;;;;;5113007;28;20063;-48
2022/03/31 12:51:50;;;;;;;7.60;1.55;;;;;;;;;;5113314;28;20062;-48
2022/03/31 12:54:33;;;;;;;5.82;1.75;;;;;;;;;;5113562;28;20019;-46
2022/03/31 12:57:02;;;;;;;6.45;1.52;;;;;;;;;;5114209;28;20073;-48
2022/03/31 12:59:33;;;;;;;7.68;2.38;;;;;;;;;;5117398;28;20023;-45
2022/03/31 13:02:16;;;;;;;3.92;1.90;;;;;;;;;;5117142;28;20106;-46
2022/03/31 13:04:43;;;;;;;5.88;2.15;;;;;;;;;;5117196;28;20160;-47
2022/03/31 13:07:13;;;;;;;7.93;2.28;;;;;;;;;;5098716;28;20035;-48
2022/03/31 13:09:40;;;;;;;11.75;2.45;;;;;;;;;;5116997;28;20546;-47
2022/03/31 13:12:09;;;;;;;10.00;2.85;;;;;;;;;;5117459;28;20027;-45
2022/03/31 13:14:50;;;;;;;7.32;2.70;;;;;;;;;;5116923;28;20107;-51
2022/03/31 13:17:16;;;;;;;;;;;;;;;;;;5117319;28;20055;-48
2022/03/31 13:19:43;;;;;;;7.63;3.05;;;;;;;;;;5116981;28;20383;-51
2022/03/31 13:22:10;;;;;;;10.68;3.60;;;;;;;;;;5116700;28;20044;-48
2022/03/31 13:24:36;;;;;;;9.32;3.20;;;;;;;;;;5117193;28;20038;-52
2022/03/31 13:27:03;;;;;;;14.63;3.28;;;;;;;;;;5116927;28;20049;-50
2022/03/31 13:29:31;;;;;;;9.55;3.97;;;;;;;;;;5116584;28;20047;-50
2022/03/31 13:31:58;;;;;;;13.32;3.42;;;;;;;;;;5116601;28;20081;-54
2022/03/31 13:34:27;;;;;;;11.95;4.25;;;;;;;;;;5116359;28;20020;-46
2022/03/31 13:36:59;;;;;;;10.20;3.70;;;;;;;;;;5116441;28;20015;-47
2022/03/31 13:39:26;;;;;;;16.40;4.75;;;;;;;;;;5116485;28;20107;-46
2022/03/31 13:41:52;;;;;;;15.07;4.75;;;;;;;;;;5116284;28;20031;-50
2022/03/31 13:44:20;;;;;;;10.75;4.40;;;;;;;;;;5116406;28;20028;-49
2022/03/31 13:46:48;;;;;;;18.90;4.38;;;;;;;;;;5097511;28;20036;-46
2022/03/31 13:49:14;;;;;;;13.00;4.90;;;;;;;;;;5116400;28;20058;-45
2022/03/31 13:51:44;;;;;;;14.45;4.10;;;;;;;;;;5116384;28;20024;-45
2022/03/31 13:54:10;;;;;;;19.15;5.68;;;;;;;;;;5110195;28;20391;-47
2022/03/31 13:56:40;;;;;;;12.05;4.75;;;;;;;;;;5108972;28;20028;-47
2022/03/31 14:01:55;;;;;;;13.77;4.25;;;;;;;;;;5102920;28;20069;-46
2022/03/31 14:04:22;;;;;;;14.43;5.13;;;;;;;;;;5104260;28;20024;-51
2022/03/31 14:06:50;;;;;;;12.95;4.45;;;;;;;;;;5103659;28;20518;-65
2022/03/31 14:09:17;;;;;;;16.95;5.45;;;;;;;;;;5108892;28;20028;-48
2022/03/31 14:11:44;;;;;;;19.75;5.90;;;;;;;;;;5115741;28;20019;-47
2022/03/31 14:14:10;;;;;;;19.08;6.95;;;;;;;;;;5114313;28;20015;-49
2022/03/31 14:16:40;;;;;;;31.35;8.55;;;;;;;;;;5102827;28;20031;-48
2022/03/31 14:19:12;;;;;;;27.58;7.80;;;;;;;;;;5101946;28;20127;-44
2022/03/31 14:21:38;;;;;;;;;;;;;;;;;;5104064;28;20445;-41
2022/03/31 14:24:05;;;;;;;17.95;6.03;;;;;;;;;;5103798;28;19911;-44
2022/03/31 14:26:31;;;;;;;27.55;8.15;;;;;;;;;;5102103;28;20035;-43
2022/03/31 14:28:57;;;;;;;17.08;6.60;;;;;;;;;;5103773;28;20024;-44
2022/03/31 14:31:25;;;;;;;19.77;6.30;;;;;;;;;;5101708;28;20028;-44
2022/03/31 14:33:51;;;;;;;15.10;6.35;;;;;;;;;;5101267;28;20104;-44
2022/03/31 14:36:21;;;;;;;17.88;6.00;;;;;;;;;;5102531;28;20035;-46
2022/03/31 14:38:50;;;;;;;19.00;6.18;;;;;;;;;;5104293;28;20020;-42
2022/03/31 14:41:23;;;;;;;24.10;6.72;;;;;;;;;;5105993;28;20058;-45
2022/03/31 14:43:52;;;;;;;17.33;6.40;;;;;;;;;;5104565;28;20047;-44